createdAt,value
2023-01-29T00:02:27.157Z,3.40
2023-01-29T00:05:09.996Z,3.10
2023-01-29T00:07:45.719Z,3.08
2023-01-29T00:10:15.346Z,3.08
2023-01-29T00:12:44.127Z,3.09
2023-01-29T00:15:12.402Z,2.97
2023-01-29T00:17:40.859Z,3.04
2023-01-29T00:20:37.668Z,3.03
2023-01-29T00:23:07.104Z,2.95
2023-01-29T00:25:40.857Z,2.97
2023-01-29T00:28:08.995Z,2.99
2023-01-29T00:30:38.292Z,3.24
2023-01-29T00:33:07.216Z,3.36
2023-01-29T00:35:40.547Z,3.47
2023-01-29T00:38:08.587Z,3.46
2023-01-29T00:40:57.943Z,3.35
2023-01-29T00:43:45.531Z,3.45
2023-01-29T00:46:18.872Z,3.50
2023-01-29T00:48:47.863Z,3.35
2023-01-29T00:51:16.643Z,3.52
2023-01-29T00:53:44.745Z,3.53
2023-01-29T00:56:13.636Z,3.48
2023-01-29T00:58:42.600Z,3.43
2023-01-29T01:01:11.345Z,3.32
2023-01-29T01:03:42.310Z,3.48
2023-01-29T01:06:11.825Z,3.45
2023-01-29T01:08:58.855Z,3.28
2023-01-29T01:11:27.568Z,3.09
2023-01-29T01:21:55.334Z,2.80
2023-01-29T01:55:39.229Z,2.88
2023-01-29T03:50:55.709Z,2.57
2023-01-29T03:53:31.785Z,2.65
2023-01-29T03:58:49.390Z,2.67
2023-01-29T04:01:25.090Z,2.64
2023-01-29T04:04:11.233Z,2.63
2023-01-29T04:06:39.375Z,2.66
2023-01-29T04:09:15.083Z,2.64
2023-01-29T04:17:01.999Z,2.78
2023-01-29T06:37:36.516Z,3.26
2023-01-29T06:40:05.688Z,3.24
2023-01-29T06:42:36.294Z,3.25
2023-01-29T06:45:05.615Z,3.28
2023-01-29T08:33:45.421Z,4.92
2023-01-29T08:36:13.769Z,5.07
2023-01-29T08:38:42.982Z,5.11
2023-01-29T08:41:11.387Z,5.15
2023-01-29T08:43:40.597Z,5.16
2023-01-29T08:46:12.377Z,5.22
2023-01-29T08:48:40.869Z,5.29
2023-01-29T09:04:59.186Z,5.79
2023-01-29T09:07:27.339Z,5.81
2023-01-29T09:09:55.426Z,5.84
2023-01-29T09:12:23.483Z,5.92
2023-01-29T09:14:51.063Z,5.96
2023-01-29T09:17:19.549Z,6.06
2023-01-29T09:19:48.163Z,6.12
2023-01-29T09:22:15.925Z,6.19
2023-01-29T09:24:44.058Z,6.34
2023-01-29T09:27:11.906Z,6.35
2023-01-29T09:29:43.162Z,6.49
2023-01-29T09:32:10.904Z,6.58
2023-01-29T09:34:43.096Z,6.69
2023-01-29T09:42:41.469Z,6.80
2023-01-29T09:45:13.589Z,6.89
2023-01-29T10:03:58.729Z,7.39
2023-01-29T10:07:01.775Z,7.38
2023-01-29T10:09:29.407Z,7.43
2023-01-29T10:12:08.839Z,7.49
2023-01-29T10:15:00.903Z,7.55
2023-01-29T10:17:45.665Z,7.67
2023-01-29T10:20:43.642Z,7.82
2023-01-29T10:23:19.809Z,7.84
2023-01-29T10:25:47.528Z,7.91
2023-01-29T10:28:42.794Z,7.96
2023-01-29T10:31:13.170Z,7.96
2023-01-29T10:33:49.502Z,8.10
2023-01-29T10:36:42.890Z,8.15
2023-01-29T10:39:18.301Z,8.31
2023-01-29T10:42:24.276Z,8.25
2023-01-29T10:44:54.689Z,8.27
2023-01-29T10:47:38.740Z,8.36
2023-01-29T10:50:21.193Z,8.44
2023-01-29T10:53:12.317Z,8.48
2023-01-29T10:55:44.514Z,8.53
2023-01-29T10:58:34.656Z,8.61
2023-01-29T11:01:02.180Z,8.68
2023-01-29T11:03:33.781Z,8.65
2023-01-29T11:06:17.001Z,8.66
2023-01-29T11:08:50.242Z,8.77
2023-01-29T11:11:22.444Z,8.73
2023-01-29T11:13:53.865Z,8.83
2023-01-29T11:16:25.640Z,8.91
2023-01-29T11:19:00.092Z,8.93
2023-01-29T11:21:30.263Z,9.01
2023-01-29T11:24:17.678Z,9.10
2023-01-29T11:26:45.688Z,9.16
2023-01-29T11:29:38.723Z,9.23
2023-01-29T11:32:32.967Z,9.41
2023-01-29T11:35:04.666Z,9.30
2023-01-29T11:38:08.148Z,9.56
2023-01-29T11:41:07.491Z,9.67
2023-01-29T11:43:34.994Z,9.77
2023-01-29T11:46:03.238Z,9.99
2023-01-29T11:48:41.422Z,10.09
2023-01-29T11:51:09.276Z,10.04
2023-01-29T11:53:37.317Z,10.11
2023-01-29T11:56:06.496Z,10.28
2023-01-29T11:58:34.243Z,10.61
2023-01-29T12:01:01.498Z,10.91
2023-01-29T12:03:35.781Z,10.98
2023-01-29T12:06:23.268Z,11.03
2023-01-29T12:08:58.023Z,11.22
2023-01-29T12:11:29.784Z,11.34
2023-01-29T12:13:59.721Z,11.48
2023-01-29T12:16:34.369Z,11.56
2023-01-29T12:19:12.211Z,11.89
2023-01-29T12:21:46.540Z,12.01
2023-01-29T12:24:44.412Z,12.08
2023-01-29T12:27:29.460Z,11.77
2023-01-29T12:30:20.251Z,12.17
2023-01-29T12:32:54.834Z,12.28
2023-01-29T12:35:27.155Z,12.64
2023-01-29T12:38:26.939Z,12.57
2023-01-29T12:40:55.352Z,12.89
2023-01-29T12:43:25.195Z,13.26
2023-01-29T12:45:55.627Z,13.34
2023-01-29T12:48:27.238Z,13.48
2023-01-29T12:50:54.645Z,13.37
2023-01-29T12:53:29.598Z,13.59
2023-01-29T12:56:17.337Z,13.67
2023-01-29T12:58:49.677Z,13.37
2023-01-29T13:01:42.218Z,13.17
2023-01-29T13:04:35.174Z,13.26
2023-01-29T13:07:14.208Z,13.65
2023-01-29T13:09:44.307Z,13.73
2023-01-29T13:12:16.622Z,13.39
2023-01-29T13:14:54.259Z,13.65
2023-01-29T13:17:40.432Z,13.71
2023-01-29T13:20:17.760Z,13.54
2023-01-29T13:22:45.135Z,13.33
2023-01-29T13:25:16.276Z,13.58
2023-01-29T13:27:44.179Z,13.68
2023-01-29T13:30:29.178Z,13.96
2023-01-29T13:33:09.310Z,13.97
2023-01-29T13:35:43.715Z,14.07
2023-01-29T13:38:37.289Z,14.30
2023-01-29T13:41:05.577Z,14.44
2023-01-29T13:43:39.345Z,14.33
2023-01-29T13:46:39.903Z,14.03
2023-01-29T13:49:16.380Z,14.09
2023-01-29T13:51:43.974Z,14.41
2023-01-29T13:54:17.120Z,14.53
2023-01-29T13:56:55.474Z,14.62
2023-01-29T13:59:46.050Z,14.69
2023-01-29T14:02:25.709Z,14.53
2023-01-29T14:05:13.633Z,14.60
2023-01-29T14:08:01.492Z,14.59
2023-01-29T14:10:32.550Z,14.54
2023-01-29T14:13:05.211Z,14.43
2023-01-29T14:15:33.672Z,14.41
2023-01-29T14:18:14.031Z,14.18
2023-01-29T14:21:03.813Z,14.24
2023-01-29T14:23:41.651Z,14.28
2023-01-29T14:26:27.756Z,14.35
2023-01-29T14:29:14.617Z,14.13
2023-01-29T14:31:54.715Z,13.97
2023-01-29T14:34:51.151Z,13.38
2023-01-29T14:37:19.110Z,12.89
2023-01-29T14:39:51.166Z,12.74
2023-01-29T14:42:26.544Z,12.51
2023-01-29T14:45:27.353Z,12.38
2023-01-29T14:48:37.169Z,11.93
2023-01-29T14:51:17.353Z,11.68
2023-01-29T14:54:04.671Z,11.72
2023-01-29T14:56:43.397Z,11.67
2023-01-29T14:59:14.833Z,11.75
2023-01-29T15:01:47.801Z,12.00
2023-01-29T15:04:21.362Z,11.97
2023-01-29T15:07:27.307Z,11.85
2023-01-29T15:10:22.477Z,11.82
2023-01-29T15:12:55.172Z,12.06
2023-01-29T15:15:48.656Z,12.50
2023-01-29T15:18:37.618Z,12.89
2023-01-29T15:21:14.683Z,13.19
2023-01-29T15:23:42.403Z,13.39
2023-01-29T15:26:20.699Z,13.53
2023-01-29T15:29:03.546Z,13.56
2023-01-29T15:31:32.601Z,13.32
2023-01-29T15:34:23.964Z,12.98
2023-01-29T15:36:51.725Z,12.68
2023-01-29T15:39:22.293Z,12.33
2023-01-29T15:41:51.807Z,12.35
2023-01-29T15:44:23.305Z,12.31
2023-01-29T15:46:58.816Z,12.35
2023-01-29T15:49:31.992Z,12.21
2023-01-29T15:52:00.895Z,11.93
2023-01-29T15:54:30.640Z,11.41
2023-01-29T15:57:01.100Z,11.05
2023-01-29T15:59:35.421Z,10.71
2023-01-29T16:02:30.301Z,10.28
2023-01-29T16:04:58.429Z,10.13
2023-01-29T16:07:26.595Z,9.99
2023-01-29T16:09:53.751Z,9.90
2023-01-29T16:12:20.872Z,9.69
2023-01-29T16:14:48.142Z,9.52
2023-01-29T16:17:25.396Z,9.33
2023-01-29T16:19:59.790Z,9.20
2023-01-29T16:22:29.736Z,9.09
2023-01-29T16:24:57.396Z,8.98
2023-01-29T16:27:25.655Z,8.87
2023-01-29T16:29:53.922Z,8.76
2023-01-29T16:32:21.573Z,8.67
2023-01-29T16:34:48.887Z,8.60
2023-01-29T16:37:19.188Z,8.46
2023-01-29T16:39:47.470Z,8.32
2023-01-29T16:42:24.803Z,8.18
2023-01-29T16:45:00.207Z,8.04
2023-01-29T16:47:41.652Z,7.94
2023-01-29T16:50:18.384Z,7.91
2023-01-29T16:53:23.317Z,7.81
2023-01-29T16:55:50.657Z,7.72
2023-01-29T16:58:21.949Z,7.66
2023-01-29T17:00:51.372Z,7.63
2023-01-29T17:03:18.115Z,7.63
2023-01-29T17:05:45.858Z,7.65
2023-01-29T17:08:28.905Z,7.64
2023-01-29T17:11:02.398Z,7.59
2023-01-29T17:13:38.721Z,7.53
2023-01-29T17:16:24.224Z,7.54
2023-01-29T17:18:52.374Z,7.48
2023-01-29T17:21:20.329Z,7.43
2023-01-29T17:23:48.567Z,7.37
2023-01-29T17:26:15.559Z,7.30
2023-01-29T17:28:43.486Z,7.21
2023-01-29T17:31:11.345Z,7.21
2023-01-29T17:33:41.221Z,7.17
2023-01-29T17:36:15.381Z,7.05
2023-01-29T17:38:43.484Z,6.99
2023-01-29T17:41:28.159Z,6.90
2023-01-29T17:43:56.204Z,6.86
2023-01-29T17:46:23.796Z,6.82
2023-01-29T17:48:52.415Z,6.77
2023-01-29T17:51:19.600Z,6.73
2023-01-29T17:53:47.788Z,6.67
2023-01-29T17:56:19.538Z,6.65
2023-01-29T17:58:47.128Z,6.67
2023-01-29T18:01:15.166Z,6.65
2023-01-29T18:03:42.808Z,6.64
2023-01-29T18:06:10.579Z,6.61
2023-01-29T18:08:38.452Z,6.55
2023-01-29T18:11:05.983Z,6.47
2023-01-29T18:13:36.146Z,6.43
2023-01-29T18:16:04.478Z,6.38
2023-01-29T18:18:32.582Z,6.38
2023-01-29T18:21:00.805Z,6.36
2023-01-29T18:23:31.326Z,6.31
2023-01-29T18:25:59.195Z,6.31
2023-01-29T18:28:27.297Z,6.31
2023-01-29T18:30:55.048Z,6.25
2023-01-29T18:33:24.248Z,6.23
2023-01-29T18:35:54.969Z,6.25
2023-01-29T18:38:22.685Z,6.19
2023-01-29T18:40:50.591Z,6.13
2023-01-29T18:43:18.715Z,6.05
2023-01-29T18:45:46.778Z,5.96
2023-01-29T18:48:15.281Z,5.93
2023-01-29T18:50:45.660Z,5.90
2023-01-29T18:53:13.840Z,5.87
2023-01-29T18:55:42.051Z,5.78
2023-01-29T18:58:25.911Z,5.79
2023-01-29T19:00:57.105Z,5.72
2023-01-29T19:03:25.461Z,5.67
2023-01-29T19:05:57.595Z,5.56
2023-01-29T19:08:26.108Z,5.43
2023-01-29T19:10:54.267Z,5.28
2023-01-29T19:13:24.141Z,5.19
2023-01-29T19:15:52.290Z,5.12
2023-01-29T19:18:20.543Z,5.06
2023-01-29T19:20:48.295Z,5.01
2023-01-29T19:23:24.279Z,4.94
2023-01-29T19:25:53.191Z,4.85
2023-01-29T19:28:20.882Z,4.85
2023-01-29T19:30:49.000Z,4.85
2023-01-29T19:33:16.997Z,4.82
2023-01-29T19:35:47.961Z,4.92
2023-01-29T19:38:21.000Z,4.90
2023-01-29T19:40:48.899Z,4.84
2023-01-29T19:43:18.233Z,4.78
2023-01-29T19:45:50.875Z,4.74
2023-01-29T19:48:22.378Z,4.69
2023-01-29T19:50:58.926Z,4.76
2023-01-29T19:53:26.081Z,4.83
2023-01-29T19:56:09.753Z,4.89
2023-01-29T19:58:37.265Z,4.91
2023-01-29T20:01:14.958Z,4.90
2023-01-29T20:09:06.143Z,4.93
2023-01-29T20:11:35.207Z,4.93
2023-01-29T20:14:03.589Z,4.99
2023-01-29T20:16:32.018Z,5.06
2023-01-29T20:19:14.976Z,5.06
2023-01-29T20:21:46.134Z,5.01
2023-01-29T20:24:15.475Z,4.91
2023-01-29T20:26:44.168Z,4.76
2023-01-29T20:29:12.176Z,4.73
2023-01-29T20:31:40.945Z,4.71
2023-01-29T20:34:09.561Z,4.68
2023-01-29T20:36:38.091Z,4.65
2023-01-29T20:39:05.940Z,4.76
2023-01-29T20:41:34.382Z,4.73
2023-01-29T20:44:02.561Z,4.75
2023-01-29T20:46:31.061Z,4.85
2023-01-29T20:48:59.027Z,4.87
2023-01-29T20:51:30.802Z,4.80
2023-01-29T20:53:59.084Z,4.65
2023-01-29T20:56:37.412Z,4.47
2023-01-29T20:59:11.137Z,4.25
2023-01-29T21:01:39.676Z,4.17
2023-01-29T21:04:08.508Z,4.05
2023-01-29T21:06:37.673Z,3.95
2023-01-29T21:09:07.332Z,3.86
2023-01-29T21:11:35.113Z,3.77
2023-01-29T21:14:02.912Z,3.73
2023-01-29T21:16:32.348Z,3.67
2023-01-29T21:19:00.747Z,3.57
2023-01-29T21:21:29.543Z,3.52
2023-01-29T21:23:58.608Z,3.51
2023-01-29T21:26:27.800Z,3.46
2023-01-29T21:28:56.284Z,3.38
2023-01-29T22:09:12.622Z,3.50
2023-01-29T22:11:41.833Z,3.48
2023-01-29T22:14:11.348Z,3.31
2023-01-29T22:16:40.459Z,3.24
2023-01-29T22:19:08.399Z,3.19
2023-01-29T22:21:36.898Z,3.18
2023-01-29T22:26:40.593Z,3.02
2023-01-29T22:29:08.509Z,3.00
2023-01-29T23:58:57.224Z,1.88
